createdAt,value
2018-03-25T00:01:54.318Z,45.20
2018-03-25T00:04:21.641Z,46.67
2018-03-25T00:06:48.943Z,44.67
2018-03-25T00:09:16.264Z,55.37
2018-03-25T00:11:43.648Z,49.13
2018-03-25T00:14:11.063Z,56.47
2018-03-25T00:16:38.435Z,45.70
2018-03-25T00:19:05.723Z,44.53
2018-03-25T00:21:33.032Z,44.37
2018-03-25T00:24:00.346Z,45.90
2018-03-25T00:26:27.643Z,45.40
2018-03-25T00:28:54.957Z,48.83
2018-03-25T00:31:22.375Z,46.33
2018-03-25T00:33:49.752Z,43.67
2018-03-25T00:36:17.082Z,50.90
2018-03-25T00:38:44.395Z,45.17
2018-03-25T00:41:11.688Z,47.13
2018-03-25T00:43:38.967Z,52.90
2018-03-25T00:46:06.271Z,50.27
2018-03-25T00:48:33.591Z,49.13
2018-03-25T00:51:00.894Z,53.10
2018-03-25T00:53:28.192Z,62.97
2018-03-25T00:55:55.476Z,52.40
2018-03-25T00:58:23.152Z,56.10
2018-03-25T01:00:50.462Z,51.70
2018-03-25T01:03:17.813Z,53.67
2018-03-25T01:05:45.150Z,54.50
2018-03-25T01:08:12.543Z,46.07
2018-03-25T01:10:40.100Z,43.33
2018-03-25T01:13:07.380Z,47.00
2018-03-25T01:15:40.603Z,54.17
2018-03-25T01:18:07.945Z,44.00
2018-03-25T01:20:35.624Z,50.10
2018-03-25T01:23:02.899Z,48.73
2018-03-25T01:25:30.210Z,43.90
2018-03-25T01:27:57.495Z,45.17
2018-03-25T01:30:24.791Z,42.50
2018-03-25T01:32:52.109Z,46.63
2018-03-25T01:35:19.427Z,47.20
2018-03-25T01:37:46.779Z,38.20
2018-03-25T01:40:14.067Z,42.47
2018-03-25T01:42:41.355Z,46.90
2018-03-25T01:45:08.671Z,47.37
2018-03-25T01:47:35.950Z,44.10
2018-03-25T01:50:03.275Z,47.57
2018-03-25T01:52:30.546Z,47.03
2018-03-25T01:54:57.818Z,48.33
2018-03-25T01:57:25.115Z,44.67
2018-03-25T01:59:52.394Z,45.97
2018-03-25T02:02:19.705Z,49.53
2018-03-25T02:04:47.043Z,43.73
2018-03-25T02:07:14.410Z,45.87
2018-03-25T02:09:41.688Z,46.67
2018-03-25T02:12:09.002Z,43.30
2018-03-25T02:14:36.332Z,41.03
2018-03-25T02:17:03.615Z,43.13
2018-03-25T02:19:30.911Z,39.73
2018-03-25T02:21:58.202Z,43.63
2018-03-25T02:24:25.474Z,39.70
2018-03-25T02:26:52.779Z,43.97
2018-03-25T02:29:20.080Z,47.03
2018-03-25T02:31:47.381Z,48.10
2018-03-25T02:34:14.676Z,45.03
2018-03-25T02:36:41.964Z,42.70
2018-03-25T02:39:09.270Z,39.63
2018-03-25T02:41:36.550Z,52.80
2018-03-25T02:44:03.843Z,40.87
2018-03-25T02:46:31.145Z,47.20
2018-03-25T02:48:58.447Z,42.80
2018-03-25T02:51:25.758Z,39.30
2018-03-25T02:53:53.053Z,54.27
2018-03-25T02:56:20.356Z,37.43
2018-03-25T02:58:47.647Z,45.70
2018-03-25T03:01:14.948Z,44.33
2018-03-25T03:03:42.244Z,43.77
2018-03-25T03:06:09.856Z,35.67
2018-03-25T03:08:37.054Z,33.80
2018-03-25T03:11:04.338Z,36.70
2018-03-25T03:13:31.654Z,33.87
2018-03-25T03:15:59.170Z,31.13
2018-03-25T03:18:26.438Z,30.53
2018-03-25T03:20:53.726Z,30.90
2018-03-25T03:23:21.026Z,31.00
2018-03-25T03:25:48.333Z,34.33
2018-03-25T03:28:15.615Z,34.60
2018-03-25T03:30:42.957Z,38.03
2018-03-25T03:33:10.255Z,34.63
2018-03-25T03:35:37.552Z,40.23
2018-03-25T03:38:04.841Z,37.03
2018-03-25T03:40:32.125Z,37.07
2018-03-25T03:42:59.426Z,33.67
2018-03-25T03:45:26.733Z,32.93
2018-03-25T03:47:54.009Z,38.77
2018-03-25T03:50:21.281Z,35.67
2018-03-25T03:52:48.576Z,38.33
2018-03-25T03:55:15.850Z,35.57
2018-03-25T03:57:43.154Z,41.90
2018-03-25T04:00:10.450Z,36.87
2018-03-25T04:02:37.731Z,32.83
2018-03-25T04:05:05.039Z,31.83
2018-03-25T04:07:32.321Z,34.00
2018-03-25T04:09:59.615Z,37.53
2018-03-25T04:12:26.897Z,36.50
2018-03-25T04:14:54.189Z,38.57
2018-03-25T04:17:21.527Z,38.43
2018-03-25T04:19:48.800Z,40.67
2018-03-25T04:22:16.102Z,39.20
2018-03-25T04:24:43.385Z,33.63
2018-03-25T04:27:10.681Z,37.13
2018-03-25T04:29:37.967Z,44.23
2018-03-25T04:32:05.290Z,33.67
2018-03-25T04:34:32.569Z,32.33
2018-03-25T04:36:59.852Z,36.67
2018-03-25T04:39:27.167Z,32.60
2018-03-25T04:41:54.820Z,35.80
2018-03-25T04:44:22.136Z,30.83
2018-03-25T04:46:49.426Z,34.70
2018-03-25T04:49:16.734Z,42.43
2018-03-25T04:51:44.035Z,39.63
2018-03-25T04:54:11.320Z,41.37
2018-03-25T04:56:38.623Z,35.53
2018-03-25T04:59:05.895Z,32.37
2018-03-25T05:01:33.202Z,37.50
2018-03-25T05:04:00.489Z,35.13
2018-03-25T05:06:28.390Z,36.40
2018-03-25T05:08:55.687Z,36.10
2018-03-25T05:11:22.988Z,36.77
2018-03-25T05:13:50.283Z,31.60
2018-03-25T05:16:17.593Z,36.90
2018-03-25T05:18:44.895Z,33.27
2018-03-25T05:21:12.182Z,31.53
2018-03-25T05:23:39.471Z,34.70
2018-03-25T05:26:06.756Z,36.90
2018-03-25T05:28:34.063Z,35.50
2018-03-25T05:31:01.400Z,31.83
2018-03-25T05:33:28.666Z,32.87
2018-03-25T05:35:55.968Z,21.63
2018-03-25T05:38:23.247Z,27.60
2018-03-25T05:40:50.533Z,25.37
2018-03-25T05:43:17.848Z,25.47
2018-03-25T05:45:45.145Z,23.23
2018-03-25T05:48:12.439Z,26.27
2018-03-25T05:50:39.725Z,19.90
2018-03-25T05:53:07.027Z,25.13
2018-03-25T05:55:34.330Z,23.43
2018-03-25T05:58:01.618Z,22.43
2018-03-25T06:00:28.933Z,21.53
2018-03-25T06:02:56.231Z,23.97
2018-03-25T06:05:23.516Z,24.80
2018-03-25T06:07:50.795Z,24.90
2018-03-25T06:10:18.105Z,23.53
2018-03-25T06:12:45.390Z,18.93
2018-03-25T06:15:12.679Z,27.60
2018-03-25T06:17:39.983Z,20.13
2018-03-25T06:20:07.273Z,22.00
2018-03-25T06:22:34.575Z,20.47
2018-03-25T06:25:01.889Z,24.87
2018-03-25T06:27:29.216Z,22.23
2018-03-25T06:29:56.488Z,22.33
2018-03-25T06:32:23.792Z,23.30
2018-03-25T06:34:51.090Z,25.30
2018-03-25T06:37:18.426Z,18.17
2018-03-25T06:39:45.741Z,25.80
2018-03-25T06:42:13.030Z,24.10
2018-03-25T06:44:40.323Z,25.30
2018-03-25T06:47:07.617Z,29.43
2018-03-25T06:49:34.909Z,24.27
2018-03-25T06:52:02.210Z,27.17
2018-03-25T06:54:29.486Z,18.20
2018-03-25T06:56:56.806Z,19.47
2018-03-25T06:59:24.099Z,18.63
2018-03-25T07:01:51.420Z,18.13
2018-03-25T07:04:19.654Z,15.30
2018-03-25T07:06:47.736Z,27.43
2018-03-25T07:09:15.259Z,18.40
2018-03-25T07:11:42.582Z,19.30
2018-03-25T07:14:09.877Z,26.00
2018-03-25T07:16:37.156Z,19.60
2018-03-25T07:19:04.465Z,17.73
2018-03-25T07:21:31.787Z,19.00
2018-03-25T07:23:59.069Z,20.07
2018-03-25T07:26:26.395Z,26.93
2018-03-25T07:28:53.706Z,23.57
2018-03-25T07:31:20.987Z,24.40
2018-03-25T07:33:48.290Z,21.70
2018-03-25T07:36:15.657Z,27.17
2018-03-25T07:38:42.959Z,27.80
2018-03-25T07:41:10.252Z,19.83
2018-03-25T07:43:37.545Z,13.27
2018-03-25T07:46:04.843Z,16.80
2018-03-25T07:48:32.151Z,18.90
2018-03-25T07:50:59.435Z,21.83
2018-03-25T07:53:26.843Z,17.57
2018-03-25T07:55:54.139Z,15.20
2018-03-25T07:58:22.719Z,22.53
2018-03-25T08:00:50.015Z,26.63
2018-03-25T08:03:17.327Z,26.43
2018-03-25T08:05:45.025Z,29.07
2018-03-25T08:08:12.363Z,20.53
2018-03-25T08:10:39.645Z,19.60
2018-03-25T08:13:06.944Z,19.80
2018-03-25T08:15:34.270Z,22.20
2018-03-25T08:18:01.556Z,18.93
2018-03-25T08:20:28.856Z,20.43
2018-03-25T08:22:56.176Z,26.70
2018-03-25T08:25:23.492Z,30.10
2018-03-25T08:27:51.605Z,23.77
2018-03-25T08:30:18.893Z,25.83
2018-03-25T08:32:46.240Z,24.40
2018-03-25T08:35:13.589Z,25.40
2018-03-25T08:37:41.103Z,27.00
2018-03-25T08:40:08.391Z,24.23
2018-03-25T08:42:35.698Z,27.57
2018-03-25T08:45:03.313Z,29.80
2018-03-25T08:47:30.636Z,23.13
2018-03-25T08:49:58.231Z,33.27
2018-03-25T08:52:25.529Z,23.93
2018-03-25T08:54:52.834Z,25.20
2018-03-25T08:57:20.135Z,28.53
2018-03-25T08:59:47.712Z,28.07
2018-03-25T09:02:15.356Z,24.40
2018-03-25T09:04:42.692Z,26.57
2018-03-25T09:07:10.073Z,25.13
2018-03-25T09:09:37.372Z,27.93
2018-03-25T09:12:04.722Z,24.63
2018-03-25T09:14:32.041Z,25.00
2018-03-25T09:16:59.508Z,27.43
2018-03-25T09:22:00.497Z,32.53
2018-03-25T09:24:27.787Z,23.93
2018-03-25T09:26:55.079Z,26.87
2018-03-25T09:29:22.663Z,25.67
2018-03-25T09:31:49.948Z,32.17
2018-03-25T09:34:17.324Z,26.43
2018-03-25T09:36:44.620Z,31.60
2018-03-25T09:39:11.935Z,30.80
2018-03-25T09:41:39.250Z,27.50
2018-03-25T09:44:06.543Z,29.90
2018-03-25T09:46:33.830Z,25.13
2018-03-25T09:49:01.115Z,29.83
2018-03-25T09:51:28.430Z,25.70
2018-03-25T09:53:55.711Z,30.40
2018-03-25T09:56:23.024Z,27.17
2018-03-25T09:58:50.332Z,35.20
2018-03-25T10:01:23.183Z,30.03
2018-03-25T10:03:50.508Z,29.47
2018-03-25T10:06:17.805Z,29.87
2018-03-25T10:08:45.103Z,32.80
2018-03-25T10:11:12.395Z,28.40
2018-03-25T10:13:39.697Z,26.27
2018-03-25T10:16:07.268Z,24.97
2018-03-25T10:18:34.560Z,36.20
2018-03-25T10:21:01.882Z,34.77
2018-03-25T10:23:29.177Z,30.10
2018-03-25T10:25:56.515Z,27.90
2018-03-25T10:28:23.930Z,29.40
2018-03-25T10:30:51.366Z,29.43
2018-03-25T10:33:19.268Z,27.47
2018-03-25T10:35:46.639Z,31.77
2018-03-25T10:38:13.932Z,27.70
2018-03-25T10:40:41.308Z,31.23
2018-03-25T10:43:08.664Z,25.80
2018-03-25T10:45:35.929Z,32.40
2018-03-25T10:48:03.247Z,35.10
2018-03-25T10:50:30.874Z,25.07
2018-03-25T10:52:58.192Z,28.10
2018-03-25T10:55:26.136Z,23.60
2018-03-25T10:57:53.699Z,37.73
2018-03-25T11:00:21.102Z,27.00
2018-03-25T11:02:48.394Z,32.47
2018-03-25T11:05:15.702Z,22.87
2018-03-25T11:07:43.350Z,30.20
2018-03-25T11:10:10.628Z,24.53
2018-03-25T11:12:37.894Z,28.53
2018-03-25T11:15:05.191Z,31.33
2018-03-25T11:17:32.475Z,27.53
2018-03-25T11:19:59.798Z,33.50
2018-03-25T11:22:27.115Z,30.27
2018-03-25T11:24:54.479Z,26.17
2018-03-25T11:27:22.295Z,26.73
2018-03-25T11:29:49.619Z,33.90
2018-03-25T11:32:17.056Z,25.37
2018-03-25T11:34:44.352Z,21.50
2018-03-25T11:37:12.343Z,27.60
2018-03-25T11:39:39.763Z,25.90
2018-03-25T11:42:07.136Z,25.30
2018-03-25T11:44:34.492Z,27.97
2018-03-25T11:47:01.882Z,23.30
2018-03-25T11:49:29.803Z,26.03
2018-03-25T11:51:57.104Z,28.00
2018-03-25T11:54:24.406Z,20.30
2018-03-25T11:56:51.696Z,16.70
2018-03-25T11:59:18.976Z,24.33
2018-03-25T12:01:46.486Z,19.53
2018-03-25T12:04:14.079Z,20.10
2018-03-25T12:06:41.431Z,19.10
2018-03-25T12:09:08.718Z,21.50
2018-03-25T12:11:36.034Z,22.80
2018-03-25T12:14:03.338Z,26.13
2018-03-25T12:16:30.646Z,22.50
2018-03-25T12:18:57.967Z,19.30
2018-03-25T12:21:26.106Z,20.80
2018-03-25T12:23:53.423Z,18.73
2018-03-25T12:26:20.723Z,15.57
2018-03-25T12:28:48.042Z,17.40
2018-03-25T12:31:15.359Z,20.23
2018-03-25T12:33:42.662Z,19.03
2018-03-25T12:36:09.962Z,21.20
2018-03-25T12:38:37.247Z,28.90
2018-03-25T12:41:04.547Z,19.17
2018-03-25T12:43:31.822Z,28.67
2018-03-25T12:45:59.136Z,24.53
2018-03-25T12:48:26.453Z,23.97
2018-03-25T12:50:53.740Z,19.80
2018-03-25T12:53:21.031Z,21.63
2018-03-25T12:55:48.306Z,20.40
2018-03-25T12:58:15.625Z,18.90
2018-03-25T13:00:42.911Z,18.00
2018-03-25T13:03:10.194Z,17.60
2018-03-25T13:05:37.530Z,17.80
2018-03-25T13:08:04.816Z,14.20
2018-03-25T13:10:32.120Z,18.73
2018-03-25T13:12:59.402Z,20.13
2018-03-25T13:15:26.704Z,27.97
2018-03-25T13:17:54.015Z,20.97
2018-03-25T13:20:21.284Z,19.20
2018-03-25T13:22:48.584Z,17.03
2018-03-25T13:25:15.895Z,18.70
2018-03-25T13:27:43.649Z,17.60
2018-03-25T13:30:10.915Z,20.93
2018-03-25T13:32:38.213Z,20.30
2018-03-25T13:35:05.516Z,21.13
2018-03-25T13:37:32.799Z,15.93
2018-03-25T13:40:00.129Z,17.10
2018-03-25T13:42:27.418Z,15.73
2018-03-25T13:44:54.712Z,18.97
2018-03-25T13:47:22.013Z,21.90
2018-03-25T13:49:49.331Z,20.10
2018-03-25T13:52:16.729Z,18.40
2018-03-25T13:54:43.996Z,18.60
2018-03-25T13:57:11.309Z,18.47
2018-03-25T13:59:38.599Z,14.63
2018-03-25T14:02:05.890Z,18.63
2018-03-25T14:04:33.194Z,37.40
2018-03-25T14:07:00.708Z,20.90
2018-03-25T14:09:28.007Z,21.20
2018-03-25T14:11:55.293Z,22.83
2018-03-25T14:14:22.616Z,18.47
2018-03-25T14:16:49.921Z,21.60
2018-03-25T14:19:17.259Z,17.20
2018-03-25T14:21:44.864Z,17.80
2018-03-25T14:24:12.166Z,16.33
2018-03-25T14:26:39.465Z,19.73
2018-03-25T14:29:06.783Z,20.50
2018-03-25T14:31:34.209Z,17.47
2018-03-25T14:34:01.475Z,17.60
2018-03-25T14:36:28.782Z,17.73
2018-03-25T14:38:56.083Z,17.40
2018-03-25T14:41:24.323Z,17.43
2018-03-25T14:43:51.613Z,19.80
2018-03-25T14:46:18.890Z,19.47
2018-03-25T14:48:46.229Z,15.83
2018-03-25T14:51:13.525Z,20.20
2018-03-25T14:53:40.809Z,19.90
2018-03-25T14:56:08.127Z,20.93
2018-03-25T14:58:35.532Z,18.47
2018-03-25T15:01:03.103Z,27.73
2018-03-25T15:03:30.383Z,22.57
2018-03-25T15:05:57.688Z,17.20
2018-03-25T15:08:24.986Z,19.13
2018-03-25T15:10:52.281Z,27.23
2018-03-25T15:13:19.559Z,24.23
2018-03-25T15:15:46.847Z,21.67
2018-03-25T15:18:15.070Z,22.57
2018-03-25T15:20:42.396Z,22.10
2018-03-25T15:23:09.707Z,22.10
2018-03-25T15:25:37.007Z,22.20
2018-03-25T15:28:04.546Z,22.63
2018-03-25T15:30:31.858Z,24.20
2018-03-25T15:32:59.283Z,25.83
2018-03-25T15:35:26.581Z,22.07
2018-03-25T15:37:53.957Z,20.73
2018-03-25T15:40:21.259Z,25.13
2018-03-25T15:42:48.578Z,21.77
2018-03-25T15:45:15.954Z,28.83
2018-03-25T15:47:43.700Z,30.33
2018-03-25T15:50:11.088Z,27.07
2018-03-25T15:52:38.373Z,29.17
2018-03-25T15:55:05.667Z,27.53
2018-03-25T15:57:33.082Z,23.50
2018-03-25T16:00:00.747Z,24.33
2018-03-25T16:02:28.082Z,22.90
2018-03-25T16:04:55.371Z,21.63
2018-03-25T16:07:22.661Z,22.57
2018-03-25T16:09:49.982Z,20.80
2018-03-25T16:12:17.335Z,25.60
2018-03-25T16:14:44.678Z,32.13
2018-03-25T16:17:11.980Z,31.50
2018-03-25T16:19:39.285Z,27.87
2018-03-25T16:22:06.608Z,28.40
2018-03-25T16:24:33.908Z,25.27
2018-03-25T16:27:01.434Z,24.37
2018-03-25T16:29:28.723Z,23.30
2018-03-25T16:31:56.064Z,26.27
2018-03-25T16:34:23.444Z,23.30
2018-03-25T16:36:50.723Z,25.40
2018-03-25T16:39:18.127Z,24.00
2018-03-25T16:41:46.024Z,28.53
2018-03-25T16:44:14.120Z,23.73
2018-03-25T16:46:41.412Z,25.60
2018-03-25T16:49:08.892Z,29.17
2018-03-25T16:51:36.416Z,33.97
2018-03-25T16:54:04.715Z,24.73
2018-03-25T16:56:32.158Z,34.53
2018-03-25T16:58:59.452Z,25.17
2018-03-25T17:01:26.841Z,28.70
2018-03-25T17:03:54.150Z,27.70
2018-03-25T17:06:21.450Z,31.60
2018-03-25T17:08:48.745Z,26.97
2018-03-25T17:11:16.135Z,28.57
2018-03-25T17:13:43.444Z,31.40
2018-03-25T17:16:10.752Z,29.00
2018-03-25T17:18:38.344Z,32.77
2018-03-25T17:21:05.595Z,30.60
2018-03-25T17:23:32.899Z,40.33
2018-03-25T17:26:00.706Z,33.57
2018-03-25T17:28:28.052Z,31.57
2018-03-25T17:30:55.879Z,35.73
2018-03-25T17:33:23.214Z,35.70
2018-03-25T17:35:50.655Z,32.80
2018-03-25T17:38:19.763Z,32.07
2018-03-25T17:40:47.303Z,34.30
2018-03-25T17:43:14.690Z,36.67
2018-03-25T17:45:42.253Z,36.60
2018-03-25T17:48:09.646Z,36.07
2018-03-25T17:50:36.938Z,34.43
2018-03-25T17:53:04.267Z,41.50
2018-03-25T17:55:31.586Z,39.30
2018-03-25T17:57:58.895Z,36.80
2018-03-25T18:00:26.239Z,38.50
2018-03-25T18:02:53.571Z,38.57
2018-03-25T18:05:20.870Z,38.57
2018-03-25T18:07:48.172Z,37.50
2018-03-25T18:10:15.681Z,38.53
2018-03-25T18:12:43.016Z,35.17
2018-03-25T18:15:11.027Z,33.23
2018-03-25T18:17:38.404Z,33.83
2018-03-25T18:20:05.696Z,37.10
2018-03-25T18:22:33.004Z,39.07
2018-03-25T18:25:00.327Z,42.63
2018-03-25T18:27:27.626Z,40.60
2018-03-25T18:29:54.941Z,38.80
2018-03-25T18:32:22.247Z,51.63
2018-03-25T18:34:49.551Z,43.50
2018-03-25T18:37:17.161Z,40.90
2018-03-25T18:39:44.436Z,38.00
2018-03-25T18:42:12.109Z,37.90
2018-03-25T18:44:39.419Z,45.77
2018-03-25T18:47:06.710Z,47.07
2018-03-25T18:49:34.022Z,41.63
2018-03-25T18:52:01.311Z,43.80
2018-03-25T18:54:28.616Z,37.13
2018-03-25T18:56:56.004Z,41.07
2018-03-25T18:59:23.352Z,46.47
2018-03-25T19:01:50.644Z,41.67
2018-03-25T19:04:17.943Z,40.83
2018-03-25T19:06:45.239Z,44.90
2018-03-25T19:09:13.419Z,44.37
2018-03-25T19:11:40.719Z,43.73
2018-03-25T19:14:08.007Z,39.63
2018-03-25T19:16:35.306Z,39.97
2018-03-25T19:19:02.624Z,43.87
2018-03-25T19:21:30.042Z,41.80
2018-03-25T19:24:02.378Z,41.17
2018-03-25T19:26:29.670Z,38.87
2018-03-25T19:28:57.399Z,43.60
2018-03-25T19:31:28.770Z,40.43
2018-03-25T19:33:56.429Z,39.23
2018-03-25T19:36:23.770Z,45.60
2018-03-25T19:38:51.048Z,41.87
2018-03-25T19:41:18.365Z,41.20
2018-03-25T19:43:45.707Z,43.20
2018-03-25T19:46:13.293Z,53.80
2018-03-25T19:48:40.574Z,46.07
2018-03-25T19:51:07.873Z,47.93
2018-03-25T19:53:35.243Z,46.80
2018-03-25T19:56:02.530Z,47.20
2018-03-25T19:58:29.836Z,49.00
2018-03-25T20:00:57.140Z,41.93
2018-03-25T20:03:24.443Z,46.20
2018-03-25T20:05:51.764Z,61.33
2018-03-25T20:08:19.093Z,49.87
2018-03-25T20:10:46.718Z,46.23
2018-03-25T20:13:14.043Z,59.43
2018-03-25T20:15:41.355Z,50.77
2018-03-25T20:18:08.689Z,49.50
2018-03-25T20:20:36.028Z,44.33
2018-03-25T20:23:03.319Z,44.67
2018-03-25T20:25:30.614Z,49.73
2018-03-25T20:27:58.041Z,64.43
2018-03-25T20:30:25.496Z,57.13
2018-03-25T20:32:52.804Z,52.63
2018-03-25T20:35:21.343Z,44.17
2018-03-25T20:37:48.902Z,60.37
2018-03-25T20:40:16.227Z,55.87
2018-03-25T20:42:43.565Z,51.30
2018-03-25T20:45:11.257Z,61.83
2018-03-25T20:47:40.480Z,51.67
2018-03-25T20:50:07.778Z,63.13
2018-03-25T20:52:35.118Z,57.47
2018-03-25T20:55:02.409Z,41.57
2018-03-25T20:57:30.657Z,58.90
2018-03-25T20:59:58.184Z,48.60
2018-03-25T21:02:25.587Z,45.40
2018-03-25T21:04:52.878Z,51.07
2018-03-25T21:07:20.248Z,65.23
2018-03-25T21:09:47.555Z,57.30
2018-03-25T21:12:15.768Z,59.10
2018-03-25T21:14:43.303Z,46.13
2018-03-25T21:17:10.749Z,60.83
2018-03-25T21:19:38.026Z,61.87
2018-03-25T21:22:05.339Z,50.67
2018-03-25T21:24:32.687Z,55.43
2018-03-25T21:26:59.934Z,72.80
2018-03-25T21:29:27.271Z,72.90
2018-03-25T21:31:58.121Z,59.83
2018-03-25T21:34:25.419Z,79.13
2018-03-25T21:36:52.697Z,53.30
2018-03-25T21:39:20.047Z,60.70
2018-03-25T21:41:47.401Z,51.80
2018-03-25T21:44:14.858Z,51.90
2018-03-25T21:46:42.146Z,51.53
2018-03-25T21:49:09.488Z,47.23
2018-03-25T21:51:36.776Z,46.60
2018-03-25T21:54:04.061Z,60.47
2018-03-25T21:56:31.391Z,48.30
2018-03-25T21:58:58.940Z,54.17
2018-03-25T22:01:26.305Z,72.10
2018-03-25T22:03:53.756Z,56.13
2018-03-25T22:06:21.038Z,70.80
2018-03-25T22:08:48.335Z,46.93
2018-03-25T22:11:15.638Z,49.57
2018-03-25T22:13:42.944Z,51.27
2018-03-25T22:16:10.285Z,54.33
2018-03-25T22:18:43.763Z,55.80
2018-03-25T22:21:11.123Z,55.83
2018-03-25T22:23:38.532Z,61.70
2018-03-25T22:26:05.917Z,57.37
2018-03-25T22:28:33.245Z,45.93
2018-03-25T22:31:00.614Z,56.83
2018-03-25T22:33:27.963Z,53.77
2018-03-25T22:35:55.254Z,68.10
2018-03-25T22:38:22.687Z,51.53
2018-03-25T22:40:49.978Z,56.03
2018-03-25T22:43:17.261Z,62.10
2018-03-25T22:45:44.774Z,51.53
2018-03-25T22:48:12.152Z,50.33
2018-03-25T22:50:39.434Z,52.23
2018-03-25T22:53:06.815Z,45.60
2018-03-25T22:55:34.091Z,52.60
2018-03-25T22:58:01.423Z,50.33
2018-03-25T23:00:28.710Z,42.57
2018-03-25T23:02:56.014Z,45.07
2018-03-25T23:05:23.287Z,44.00
2018-03-25T23:07:51.194Z,47.37
2018-03-25T23:10:18.510Z,56.23
2018-03-25T23:12:45.810Z,45.80
2018-03-25T23:15:13.104Z,47.60
2018-03-25T23:17:40.386Z,50.87
2018-03-25T23:20:07.695Z,46.70
2018-03-25T23:22:34.985Z,48.03
2018-03-25T23:25:02.280Z,45.83
2018-03-25T23:27:29.591Z,47.70
2018-03-25T23:29:56.891Z,44.07
2018-03-25T23:32:24.198Z,47.80
2018-03-25T23:34:51.495Z,45.67
2018-03-25T23:37:18.794Z,41.30
2018-03-25T23:39:46.110Z,44.47
2018-03-25T23:42:13.392Z,41.73
2018-03-25T23:44:40.707Z,47.40
2018-03-25T23:47:08.007Z,49.17
2018-03-25T23:49:35.325Z,39.70
2018-03-25T23:52:02.605Z,38.17
2018-03-25T23:54:29.909Z,35.33
2018-03-25T23:56:57.211Z,43.97
2018-03-25T23:59:24.511Z,39.27
